MSV weather

Sullivan County International Airport
Monticello, New York, United States

Public forecast

Using degrees Fahrenheit for public forecast. Weather courtesy of forecast.io.

Current aviation weather report (METAR) for Sullivan County International Airport

Retrieved 2020/01/22 21:56 UTC (40 minutes ago):

KMSV 222156Z AUTO 00000KT 10SM CLR 00/M09 A3036 RMK AO2 SLP305 T00001089 FZRANO

Closest aviation forecast (TAF) to Sullivan County International Airport

Closest forecast is New York Stewart International Airport, 33.2 nm (61.4 km) ESE. Retrieved 2020/01/22 18:30 UTC (4 hours ago):

TAF KSWF 221726Z 2218/2324 VRB03KT P6SM FEW250 FM231600 25004KT P6SM SCT250 FM232100 VRB02KT P6SM BKN250 AMD NOT SKED